createdAt,value
2023-05-03T00:01:34.040Z,3.23
2023-05-03T00:04:00.513Z,2.77
2023-05-03T00:06:26.985Z,3.27
2023-05-03T00:08:53.783Z,3.20
2023-05-03T00:11:21.103Z,3.50
2023-05-03T00:13:47.650Z,3.20
2023-05-03T00:16:14.396Z,3.23
2023-05-03T00:18:40.894Z,3.30
2023-05-03T00:21:07.376Z,2.90
2023-05-03T00:23:34.294Z,3.07
2023-05-03T00:26:00.723Z,3.27
2023-05-03T00:28:27.249Z,3.30
2023-05-03T00:30:53.914Z,2.83
2023-05-03T00:33:20.469Z,2.93
2023-05-03T00:35:47.187Z,3.00
2023-05-03T00:38:15.384Z,2.70
2023-05-03T00:40:41.906Z,2.80
2023-05-03T00:43:11.552Z,3.07
2023-05-03T00:45:38.419Z,2.97
2023-05-03T00:48:05.052Z,2.50
2023-05-03T00:50:31.658Z,2.90
2023-05-03T00:52:58.185Z,2.77
2023-05-03T00:55:26.032Z,2.67
2023-05-03T00:57:52.449Z,2.77
2023-05-03T01:00:19.566Z,2.37
2023-05-03T01:02:46.151Z,2.60
2023-05-03T01:05:12.781Z,2.30
2023-05-03T01:08:23.015Z,2.80
2023-05-03T01:10:59.744Z,2.70
2023-05-03T01:13:57.321Z,2.93
2023-05-03T01:16:32.909Z,2.60
2023-05-03T01:19:04.495Z,2.57
2023-05-03T01:21:33.784Z,2.30
2023-05-03T01:24:07.933Z,2.00
2023-05-03T01:26:34.410Z,2.43
2023-05-03T01:29:00.896Z,2.43
2023-05-03T01:31:43.670Z,2.00
2023-05-03T01:34:14.491Z,2.23
2023-05-03T01:36:44.061Z,2.37
2023-05-03T01:39:18.840Z,2.10
2023-05-03T01:41:46.391Z,2.63
2023-05-03T01:44:13.828Z,2.00
2023-05-03T01:46:46.839Z,1.80
2023-05-03T01:49:13.698Z,2.13
2023-05-03T01:51:40.191Z,2.30
2023-05-03T01:54:07.010Z,2.20
2023-05-03T01:56:36.736Z,2.00
2023-05-03T01:59:03.935Z,2.00
2023-05-03T02:01:30.687Z,1.90
2023-05-03T02:03:57.331Z,2.00
2023-05-03T02:06:25.333Z,2.00
2023-05-03T02:08:52.603Z,1.93
2023-05-03T02:11:19.296Z,2.13
2023-05-03T02:13:48.030Z,1.97
2023-05-03T02:16:16.672Z,1.87
2023-05-03T02:18:43.280Z,2.00
2023-05-03T02:21:10.302Z,2.17
2023-05-03T02:23:36.875Z,1.70
2023-05-03T02:26:03.339Z,1.77
2023-05-03T02:28:29.800Z,1.80
2023-05-03T02:30:56.653Z,1.73
2023-05-03T02:33:23.710Z,1.80
2023-05-03T02:35:50.115Z,1.67
2023-05-03T02:38:16.704Z,1.80
2023-05-03T02:40:43.132Z,1.73
2023-05-03T02:43:09.708Z,1.90
2023-05-03T02:45:36.887Z,1.90
2023-05-03T02:48:03.782Z,1.60
2023-05-03T02:50:31.078Z,1.50
2023-05-03T02:52:57.682Z,1.50
2023-05-03T02:55:25.071Z,1.63
2023-05-03T02:57:51.566Z,1.70
2023-05-03T03:00:19.853Z,1.60
2023-05-03T03:02:46.469Z,1.70
2023-05-03T03:05:13.346Z,1.60
2023-05-03T03:07:45.012Z,1.50
2023-05-03T03:10:11.504Z,1.83
2023-05-03T03:12:38.591Z,1.70
2023-05-03T03:15:09.290Z,1.50
2023-05-03T03:17:39.401Z,1.57
2023-05-03T03:20:12.762Z,1.40
2023-05-03T03:22:43.835Z,1.60
2023-05-03T03:25:10.900Z,1.57
2023-05-03T03:27:39.168Z,1.40
2023-05-03T03:30:08.159Z,1.20
2023-05-03T03:32:38.394Z,1.27
2023-05-03T03:35:09.979Z,1.33
2023-05-03T03:37:37.462Z,1.30
2023-05-03T03:40:05.965Z,1.77
2023-05-03T03:42:32.791Z,1.57
2023-05-03T03:44:59.567Z,1.50
2023-05-03T03:47:26.420Z,1.50
2023-05-03T03:49:53.224Z,1.53
2023-05-03T03:52:20.061Z,1.37
2023-05-03T03:54:46.524Z,1.60
2023-05-03T03:57:13.427Z,1.50
2023-05-03T03:59:40.974Z,1.50
2023-05-03T04:02:07.483Z,1.10
2023-05-03T04:04:34.738Z,1.23
2023-05-03T04:07:01.909Z,1.30
2023-05-03T04:09:28.850Z,1.43
2023-05-03T04:11:55.931Z,1.80
2023-05-03T04:14:22.769Z,1.23
2023-05-03T04:16:50.551Z,1.40
2023-05-03T04:19:18.547Z,1.47
2023-05-03T04:21:45.854Z,1.00
2023-05-03T04:24:15.666Z,1.40
2023-05-03T04:26:42.641Z,1.17
2023-05-03T04:29:16.817Z,1.10
2023-05-03T04:31:44.891Z,1.40
2023-05-03T04:34:15.814Z,1.27
2023-05-03T04:36:46.478Z,1.23
2023-05-03T04:39:13.749Z,1.43
2023-05-03T04:41:42.078Z,1.13
2023-05-03T04:44:09.570Z,1.33
2023-05-03T04:46:36.664Z,1.10
2023-05-03T04:49:03.184Z,1.30
2023-05-03T04:51:30.070Z,1.20
2023-05-03T04:53:58.819Z,1.37
2023-05-03T04:56:26.662Z,1.30
2023-05-03T04:59:00.571Z,1.33
2023-05-03T05:01:28.188Z,1.30
2023-05-03T05:03:59.336Z,1.50
2023-05-03T05:06:33.290Z,1.63
2023-05-03T05:09:01.837Z,1.30
2023-05-03T05:11:28.719Z,1.30
2023-05-03T05:13:56.467Z,1.27
2023-05-03T05:16:23.024Z,1.23
2023-05-03T05:18:53.054Z,1.53
2023-05-03T05:21:23.578Z,1.40
2023-05-03T05:23:50.070Z,1.20
2023-05-03T05:26:16.750Z,1.37
2023-05-03T05:28:43.361Z,1.40
2023-05-03T05:31:09.827Z,1.43
2023-05-03T05:33:36.675Z,1.30
2023-05-03T05:36:05.270Z,1.30
2023-05-03T05:38:32.941Z,1.27
2023-05-03T05:41:00.388Z,1.43
2023-05-03T05:43:27.260Z,1.10
2023-05-03T05:45:54.737Z,1.40
2023-05-03T05:48:22.075Z,1.30
2023-05-03T05:50:48.841Z,1.07
2023-05-03T05:53:15.498Z,1.37
2023-05-03T05:55:48.659Z,1.20
2023-05-03T05:58:15.648Z,0.93
2023-05-03T06:00:48.963Z,1.30
2023-05-03T06:03:16.132Z,0.90
2023-05-03T06:05:43.177Z,1.30
2023-05-03T06:08:10.598Z,1.30
2023-05-03T06:10:37.978Z,1.20
2023-05-03T06:13:04.440Z,1.20
2023-05-03T06:15:32.465Z,1.17
2023-05-03T06:17:59.029Z,1.13
2023-05-03T06:20:26.125Z,1.13
2023-05-03T06:22:53.401Z,1.40
2023-05-03T06:25:20.474Z,1.10
2023-05-03T06:27:49.091Z,1.07
2023-05-03T06:30:17.367Z,1.37
2023-05-03T06:32:48.609Z,1.20
2023-05-03T06:35:15.755Z,1.00
2023-05-03T06:37:43.664Z,1.40
2023-05-03T06:40:10.355Z,1.40
2023-05-03T06:42:37.013Z,1.10
2023-05-03T06:45:10.498Z,1.03
2023-05-03T06:47:39.970Z,1.20
2023-05-03T06:50:06.918Z,1.03
2023-05-03T06:52:33.347Z,1.10
2023-05-03T06:54:59.790Z,1.20
2023-05-03T06:57:28.572Z,0.90
2023-05-03T06:59:55.575Z,1.10
2023-05-03T07:02:22.752Z,1.00
2023-05-03T07:04:49.452Z,0.90
2023-05-03T07:07:16.057Z,1.10
2023-05-03T07:09:43.541Z,0.83
2023-05-03T07:12:11.113Z,0.93
2023-05-03T07:14:38.337Z,0.97
2023-05-03T07:17:04.777Z,1.00
2023-05-03T07:19:31.952Z,1.20
2023-05-03T07:21:58.427Z,1.30
2023-05-03T07:24:25.912Z,1.37
2023-05-03T07:26:55.494Z,1.03
2023-05-03T07:29:22.042Z,1.10
2023-05-03T07:31:48.947Z,1.10
2023-05-03T07:34:16.083Z,1.00
2023-05-03T07:36:42.525Z,1.27
2023-05-03T07:39:09.208Z,1.07
2023-05-03T07:41:35.706Z,1.13
2023-05-03T07:44:02.210Z,0.97
2023-05-03T07:46:28.716Z,0.90
2023-05-03T07:48:55.230Z,0.83
2023-05-03T07:51:21.746Z,1.00
2023-05-03T07:53:48.185Z,0.90
2023-05-03T07:56:14.797Z,1.13
2023-05-03T07:58:42.618Z,1.00
2023-05-03T08:01:10.325Z,1.00
2023-05-03T08:03:37.376Z,0.83
2023-05-03T08:06:04.454Z,1.27
2023-05-03T08:08:32.142Z,1.00
2023-05-03T08:10:58.670Z,1.10
2023-05-03T08:13:25.209Z,1.00
2023-05-03T08:15:52.095Z,1.00
2023-05-03T08:18:18.715Z,1.23
2023-05-03T08:20:47.034Z,1.00
2023-05-03T08:23:13.459Z,1.03
2023-05-03T08:25:39.879Z,0.80
2023-05-03T08:28:08.258Z,1.20
2023-05-03T08:30:35.766Z,1.00
2023-05-03T08:33:02.348Z,1.00
2023-05-03T08:35:28.924Z,1.10
2023-05-03T08:37:55.636Z,1.30
2023-05-03T08:40:22.745Z,1.07
2023-05-03T08:42:50.577Z,0.90
2023-05-03T08:45:17.248Z,1.00
2023-05-03T08:47:45.486Z,1.17
2023-05-03T08:50:14.220Z,1.03
2023-05-03T08:52:42.549Z,0.90
2023-05-03T08:55:10.683Z,0.90
2023-05-03T08:57:37.547Z,1.00
2023-05-03T09:00:12.657Z,1.10
2023-05-03T09:02:40.150Z,1.00
2023-05-03T09:05:16.180Z,1.27
2023-05-03T09:08:10.383Z,1.20
2023-05-03T09:10:41.784Z,1.20
2023-05-03T09:13:09.800Z,0.97
2023-05-03T09:15:37.084Z,1.23
2023-05-03T09:18:18.635Z,1.10
2023-05-03T09:20:53.351Z,1.30
2023-05-03T09:23:32.330Z,1.00
2023-05-03T09:25:59.812Z,1.00
2023-05-03T09:28:27.027Z,0.90
2023-05-03T09:31:06.996Z,1.30
2023-05-03T09:33:34.024Z,1.20
2023-05-03T09:36:05.011Z,1.10
2023-05-03T09:38:38.923Z,1.20
2023-05-03T09:41:08.727Z,1.00
2023-05-03T09:43:38.146Z,1.00
2023-05-03T09:46:12.711Z,1.17
2023-05-03T09:48:40.216Z,1.37
2023-05-03T09:51:07.456Z,1.10
2023-05-03T09:53:35.060Z,1.23
2023-05-03T09:56:13.018Z,1.67
2023-05-03T09:58:41.088Z,1.20
2023-05-03T10:01:09.069Z,1.73
2023-05-03T10:03:50.559Z,1.00
2023-05-03T10:06:32.159Z,1.60
2023-05-03T10:09:20.576Z,1.60
2023-05-03T10:11:51.636Z,1.33
2023-05-03T10:14:21.039Z,1.27
2023-05-03T10:16:50.554Z,1.80
2023-05-03T10:19:27.557Z,1.30
2023-05-03T10:22:06.236Z,1.27
2023-05-03T10:24:34.653Z,1.30
2023-05-03T10:27:01.169Z,1.43
2023-05-03T10:29:33.885Z,1.17
2023-05-03T10:32:04.740Z,1.30
2023-05-03T10:34:39.436Z,1.10
2023-05-03T10:37:10.334Z,1.13
2023-05-03T10:39:37.674Z,1.10
2023-05-03T10:42:08.956Z,1.17
2023-05-03T10:44:40.036Z,1.10
2023-05-03T10:47:16.474Z,1.13
2023-05-03T10:49:43.350Z,1.10
2023-05-03T10:52:36.079Z,1.27
2023-05-03T10:55:08.670Z,0.93
2023-05-03T10:57:39.539Z,1.23
2023-05-03T11:00:13.383Z,1.30
2023-05-03T11:03:11.459Z,1.27
2023-05-03T11:05:38.943Z,1.30
2023-05-03T11:08:08.484Z,0.93
2023-05-03T11:10:34.942Z,1.20
2023-05-03T11:13:01.407Z,1.30
2023-05-03T11:15:27.891Z,1.13
2023-05-03T11:17:54.553Z,1.03
2023-05-03T11:20:21.140Z,1.40
2023-05-03T11:22:47.984Z,1.27
2023-05-03T11:25:15.380Z,1.27
2023-05-03T11:27:42.529Z,1.30
2023-05-03T11:30:10.062Z,1.10
2023-05-03T11:32:36.906Z,1.27
2023-05-03T11:35:05.749Z,1.20
2023-05-03T11:37:32.560Z,1.10
2023-05-03T11:40:00.258Z,1.40
2023-05-03T11:42:28.073Z,1.33
2023-05-03T11:44:54.939Z,1.10
2023-05-03T11:47:22.326Z,1.10
2023-05-03T11:49:56.742Z,1.30
2023-05-03T11:52:27.682Z,1.07
2023-05-03T11:54:54.485Z,1.20
2023-05-03T11:57:21.558Z,1.00
2023-05-03T11:59:49.621Z,1.10
2023-05-03T12:02:16.588Z,0.90
2023-05-03T12:04:45.656Z,1.10
2023-05-03T12:07:14.992Z,1.10
2023-05-03T12:09:47.362Z,1.10
2023-05-03T12:12:24.013Z,1.20
2023-05-03T12:15:03.562Z,1.10
2023-05-03T12:17:39.487Z,1.10
2023-05-03T12:22:52.183Z,1.23
2023-05-03T12:25:20.810Z,1.30
2023-05-03T12:28:00.119Z,1.30
2023-05-03T12:30:35.055Z,1.40
2023-05-03T12:33:04.223Z,0.97
2023-05-03T12:35:34.137Z,1.30
2023-05-03T12:38:03.427Z,1.00
2023-05-03T12:40:34.178Z,1.37
2023-05-03T12:43:01.723Z,1.17
2023-05-03T12:45:33.747Z,1.40
2023-05-03T12:48:01.372Z,1.13
2023-05-03T12:50:31.285Z,1.20
2023-05-03T12:53:01.850Z,0.93
2023-05-03T12:55:34.613Z,1.00
2023-05-03T13:00:36.487Z,1.50
2023-05-03T13:05:35.861Z,1.30
2023-05-03T13:08:09.226Z,1.30
2023-05-03T13:10:41.086Z,1.20
2023-05-03T13:13:09.150Z,1.30
2023-05-03T13:15:36.523Z,1.37
2023-05-03T13:18:06.553Z,1.20
2023-05-03T13:20:34.982Z,1.60
2023-05-03T13:23:01.502Z,1.10
2023-05-03T13:25:27.972Z,1.20
2023-05-03T13:27:54.584Z,1.00
2023-05-03T13:30:23.074Z,1.30
2023-05-03T13:32:52.881Z,1.30
2023-05-03T13:35:20.035Z,1.30
2023-05-03T13:37:46.437Z,1.20
2023-05-03T13:40:14.709Z,1.40
2023-05-03T13:42:41.381Z,1.30
2023-05-03T13:45:08.709Z,1.20
2023-05-03T13:47:59.640Z,1.30
2023-05-03T13:50:22.406Z,1.30
2023-05-03T13:52:48.847Z,1.30
2023-05-03T13:55:15.301Z,1.60
2023-05-03T13:57:41.716Z,1.30
2023-05-03T14:00:10.110Z,1.40
2023-05-03T14:02:36.675Z,1.20
2023-05-03T14:05:03.367Z,1.10
2023-05-03T14:07:29.862Z,1.43
2023-05-03T14:09:57.432Z,1.53
2023-05-03T14:12:26.144Z,1.30
2023-05-03T14:14:53.926Z,1.37
2023-05-03T14:17:21.527Z,1.50
2023-05-03T14:19:48.451Z,1.30
2023-05-03T14:22:14.883Z,1.50
2023-05-03T14:24:42.539Z,1.50
2023-05-03T14:27:09.143Z,1.30
2023-05-03T14:29:35.619Z,1.20
2023-05-03T14:32:02.480Z,1.47
2023-05-03T14:34:29.006Z,1.20
2023-05-03T14:36:55.506Z,1.20
2023-05-03T14:39:22.380Z,1.10
2023-05-03T14:41:50.087Z,1.10
2023-05-03T14:44:17.282Z,1.43
2023-05-03T14:46:43.741Z,1.87
2023-05-03T14:49:10.238Z,1.20
2023-05-03T14:51:36.819Z,1.20
2023-05-03T14:54:03.559Z,1.60
2023-05-03T14:56:32.176Z,1.20
2023-05-03T14:58:59.328Z,1.53
2023-05-03T15:01:25.839Z,1.33
2023-05-03T15:03:52.396Z,1.30
2023-05-03T15:06:28.492Z,1.37
2023-05-03T15:08:55.219Z,1.17
2023-05-03T15:11:21.817Z,1.17
2023-05-03T15:13:48.406Z,1.23
2023-05-03T15:16:15.192Z,1.20
2023-05-03T15:18:43.825Z,1.30
2023-05-03T15:21:11.162Z,1.20
2023-05-03T15:23:37.606Z,1.40
2023-05-03T15:26:04.433Z,1.40
2023-05-03T15:28:31.113Z,1.40
2023-05-03T15:30:57.685Z,1.13
2023-05-03T15:33:24.347Z,1.20
2023-05-03T15:35:50.792Z,1.40
2023-05-03T15:38:18.022Z,1.17
2023-05-03T15:40:44.428Z,1.47
2023-05-03T15:43:11.216Z,1.33
2023-05-03T15:45:37.812Z,1.40
2023-05-03T15:48:04.599Z,1.30
2023-05-03T15:50:31.218Z,1.00
2023-05-03T15:52:57.746Z,1.13
2023-05-03T15:55:24.190Z,1.57
2023-05-03T15:57:52.129Z,1.23
2023-05-03T16:00:20.148Z,1.30
2023-05-03T16:02:46.999Z,1.10
2023-05-03T16:05:13.720Z,1.40
2023-05-03T16:07:40.282Z,1.20
2023-05-03T16:10:09.300Z,1.03
2023-05-03T16:12:35.853Z,1.30
2023-05-03T16:15:03.404Z,1.23
2023-05-03T16:17:29.884Z,1.30
2023-05-03T16:19:56.843Z,1.30
2023-05-03T16:22:23.478Z,0.87
2023-05-03T16:24:50.688Z,1.17
2023-05-03T16:27:17.161Z,1.20
2023-05-03T16:29:43.598Z,1.20
2023-05-03T16:32:11.018Z,1.20
2023-05-03T16:34:37.986Z,1.30
2023-05-03T16:37:04.708Z,1.10
2023-05-03T16:39:31.571Z,1.20
2023-05-03T16:41:58.044Z,1.10
2023-05-03T16:44:24.905Z,1.20
2023-05-03T16:46:51.645Z,1.00
2023-05-03T16:49:18.790Z,1.20
2023-05-03T16:51:45.337Z,1.00
2023-05-03T16:54:12.760Z,1.40
2023-05-03T16:56:39.244Z,1.23
2023-05-03T16:59:05.663Z,1.10
2023-05-03T17:01:32.290Z,0.90
2023-05-03T17:03:58.832Z,1.17
2023-05-03T17:06:25.326Z,1.20
2023-05-03T17:08:51.737Z,1.10
2023-05-03T17:11:18.224Z,1.27
2023-05-03T17:13:45.082Z,1.20
2023-05-03T17:16:14.963Z,1.23
2023-05-03T17:18:42.148Z,1.50
2023-05-03T17:21:09.551Z,1.30
2023-05-03T17:23:38.256Z,1.30
2023-05-03T17:26:06.953Z,1.17
2023-05-03T17:28:33.583Z,1.30
2023-05-03T17:31:00.924Z,1.10
2023-05-03T17:33:27.396Z,1.07
2023-05-03T17:35:55.526Z,1.20
2023-05-03T17:38:22.715Z,1.27
2023-05-03T17:40:49.164Z,1.30
2023-05-03T17:43:18.499Z,0.87
2023-05-03T17:45:47.135Z,1.20
2023-05-03T17:48:13.776Z,1.23
2023-05-03T17:50:41.536Z,1.40
2023-05-03T17:53:09.259Z,1.10
2023-05-03T17:55:37.968Z,1.10
2023-05-03T17:58:06.019Z,1.20
2023-05-03T18:00:32.827Z,1.17
2023-05-03T18:02:59.489Z,1.23
2023-05-03T18:05:26.642Z,1.00
2023-05-03T18:07:53.281Z,1.20
2023-05-03T18:10:19.857Z,1.07
2023-05-03T18:12:46.353Z,1.30
2023-05-03T18:15:14.997Z,1.10
2023-05-03T18:17:41.766Z,1.20
2023-05-03T18:20:09.578Z,1.20
2023-05-03T18:22:37.313Z,1.23
2023-05-03T18:25:07.552Z,1.17
2023-05-03T18:27:36.729Z,1.00
2023-05-03T18:30:06.292Z,1.27
2023-05-03T18:32:33.351Z,1.13
2023-05-03T18:35:00.682Z,0.97
2023-05-03T18:37:27.564Z,1.27
2023-05-03T18:39:54.080Z,1.40
2023-05-03T18:42:21.264Z,1.00
2023-05-03T18:44:48.175Z,1.30
2023-05-03T18:47:16.217Z,1.00
2023-05-03T18:49:46.915Z,1.00
2023-05-03T18:52:13.424Z,1.00
2023-05-03T18:54:39.877Z,1.07
2023-05-03T18:57:06.407Z,1.10
2023-05-03T18:59:32.799Z,1.30
2023-05-03T19:01:59.276Z,1.30
2023-05-03T19:04:25.798Z,1.30
2023-05-03T19:06:52.300Z,1.10
2023-05-03T19:09:18.741Z,1.17
2023-05-03T19:11:45.381Z,1.07
2023-05-03T19:14:11.890Z,1.27
2023-05-03T19:16:38.640Z,1.10
2023-05-03T19:19:05.173Z,0.93
2023-05-03T19:21:32.205Z,1.10
2023-05-03T19:23:58.709Z,1.30
2023-05-03T19:26:25.164Z,0.87
2023-05-03T19:28:51.599Z,1.00
2023-05-03T19:31:18.158Z,1.03
2023-05-03T19:33:44.608Z,1.13
2023-05-03T19:36:14.771Z,1.40
2023-05-03T19:38:41.436Z,1.10
2023-05-03T19:41:11.912Z,1.20
2023-05-03T19:43:39.374Z,1.00
2023-05-03T19:46:06.436Z,1.27
2023-05-03T19:48:33.425Z,1.30
2023-05-03T19:51:00.593Z,1.00
2023-05-03T19:53:27.964Z,1.27
2023-05-03T19:56:01.434Z,0.90
2023-05-03T19:58:28.002Z,1.00
2023-05-03T20:00:55.017Z,1.23
2023-05-03T20:03:23.643Z,1.27
2023-05-03T20:05:50.475Z,1.00
2023-05-03T20:08:17.106Z,1.07
2023-05-03T20:10:46.085Z,1.20
2023-05-03T20:13:13.252Z,1.27
2023-05-03T20:15:39.827Z,1.27
2023-05-03T20:18:06.379Z,1.40
2023-05-03T20:20:32.870Z,1.10
2023-05-03T20:22:59.308Z,1.20
2023-05-03T20:25:25.769Z,1.60
2023-05-03T20:27:52.601Z,1.30
2023-05-03T20:30:19.105Z,1.10
2023-05-03T20:32:45.757Z,1.20
2023-05-03T20:35:12.619Z,1.20
2023-05-03T20:37:39.752Z,1.10
2023-05-03T20:40:07.371Z,1.10
2023-05-03T20:42:33.965Z,1.47
2023-05-03T20:45:00.421Z,0.97
2023-05-03T20:47:27.682Z,0.90
2023-05-03T20:49:54.252Z,1.10
2023-05-03T20:52:20.906Z,1.20
2023-05-03T20:54:47.351Z,1.37
2023-05-03T20:57:16.701Z,1.40
2023-05-03T20:59:44.134Z,1.23
2023-05-03T21:02:11.632Z,1.20
2023-05-03T21:04:38.317Z,1.10
2023-05-03T21:07:04.904Z,1.00
2023-05-03T21:09:31.704Z,1.20
2023-05-03T21:11:58.163Z,1.07
2023-05-03T21:14:24.598Z,1.20
2023-05-03T21:16:51.203Z,1.20
2023-05-03T21:19:17.751Z,1.27
2023-05-03T21:21:44.236Z,1.00
2023-05-03T21:24:10.683Z,1.07
2023-05-03T21:26:37.577Z,1.13
2023-05-03T21:29:04.073Z,1.20
2023-05-03T21:31:30.617Z,1.20
2023-05-03T21:33:58.145Z,1.00
2023-05-03T21:36:25.103Z,1.17
2023-05-03T21:38:52.883Z,1.30
2023-05-03T21:41:19.596Z,1.20
2023-05-03T21:43:46.607Z,1.30
2023-05-03T21:46:13.217Z,1.20
2023-05-03T21:48:40.701Z,1.37
2023-05-03T21:51:08.551Z,1.23
2023-05-03T21:53:35.449Z,0.97
2023-05-03T21:56:01.929Z,1.30
2023-05-03T21:58:28.398Z,1.10
2023-05-03T22:00:54.836Z,1.30
2023-05-03T22:03:21.355Z,1.40
2023-05-03T22:05:50.312Z,1.57
2023-05-03T22:08:18.367Z,1.13
2023-05-03T22:10:45.529Z,1.47
2023-05-03T22:13:12.317Z,1.27
2023-05-03T22:15:39.189Z,1.20
2023-05-03T22:18:05.755Z,1.10
2023-05-03T22:20:32.500Z,1.10
2023-05-03T22:22:58.932Z,1.30
2023-05-03T22:25:27.427Z,1.13
2023-05-03T22:27:54.817Z,1.23
2023-05-03T22:30:21.829Z,1.23
2023-05-03T22:32:49.225Z,1.30
2023-05-03T22:35:16.039Z,1.10
2023-05-03T22:37:42.460Z,1.60
2023-05-03T22:40:09.519Z,1.07
2023-05-03T22:42:36.050Z,1.10
2023-05-03T22:45:03.223Z,1.17
2023-05-03T22:47:29.687Z,1.50
2023-05-03T22:49:56.751Z,1.30
2023-05-03T22:52:23.258Z,1.30
2023-05-03T22:54:54.853Z,1.70
2023-05-03T22:57:21.480Z,1.17
2023-05-03T22:59:47.930Z,1.20
2023-05-03T23:02:14.746Z,1.30
2023-05-03T23:04:41.254Z,1.10
2023-05-03T23:07:07.716Z,1.10
2023-05-03T23:09:34.165Z,1.10
2023-05-03T23:12:00.881Z,0.97
2023-05-03T23:14:27.305Z,1.33
2023-05-03T23:16:53.853Z,1.10
2023-05-03T23:19:20.574Z,1.30
2023-05-03T23:21:46.992Z,1.57
2023-05-03T23:24:13.430Z,1.20
2023-05-03T23:26:40.224Z,1.50
2023-05-03T23:29:08.224Z,1.20
2023-05-03T23:31:35.511Z,1.47
2023-05-03T23:34:04.873Z,1.40
2023-05-03T23:36:32.702Z,1.10
2023-05-03T23:38:59.196Z,1.50
2023-05-03T23:41:26.043Z,1.00
2023-05-03T23:43:52.572Z,1.43
2023-05-03T23:46:19.104Z,1.40
2023-05-03T23:48:45.599Z,1.40
2023-05-03T23:51:12.184Z,1.20
2023-05-03T23:53:38.621Z,1.33
2023-05-03T23:56:05.099Z,1.40
2023-05-03T23:58:31.640Z,1.30
